createdAt,value
2022-12-01T00:01:29.593Z,1.24
2022-12-01T00:03:58.384Z,1.22
2022-12-01T00:06:27.587Z,1.20
2022-12-01T00:09:28.113Z,1.16
2022-12-01T00:11:56.919Z,1.11
2022-12-01T00:14:25.487Z,1.09
2022-12-01T00:16:54.026Z,1.09
2022-12-01T00:19:26.752Z,1.08
2022-12-01T00:21:55.235Z,1.08
2022-12-01T00:24:24.744Z,1.08
2022-12-01T00:26:53.223Z,1.09
2022-12-01T00:29:21.804Z,1.08
2022-12-01T00:31:51.588Z,1.08
2022-12-01T00:34:24.909Z,1.06
2022-12-01T00:36:53.698Z,1.05
2022-12-01T00:39:22.589Z,1.04
2022-12-01T00:41:51.039Z,1.00
2022-12-01T00:44:19.885Z,0.96
2022-12-01T00:46:48.136Z,0.93
2022-12-01T00:49:16.720Z,0.91
2022-12-01T00:51:45.205Z,0.90
2022-12-01T00:54:13.682Z,0.89
2022-12-01T00:56:42.341Z,0.89
2022-12-01T00:59:10.748Z,0.90
2022-12-01T01:01:39.389Z,0.89
2022-12-01T01:04:08.222Z,0.89
2022-12-01T01:06:37.626Z,0.88
2022-12-01T01:09:05.986Z,0.90
2022-12-01T01:11:34.589Z,0.91
2022-12-01T01:14:03.584Z,0.92
2022-12-01T01:16:32.185Z,0.92
2022-12-01T01:19:00.896Z,0.91
2022-12-01T01:21:29.542Z,0.90
2022-12-01T01:23:58.020Z,0.90
2022-12-01T01:26:30.906Z,0.90
2022-12-01T01:29:01.331Z,0.89
2022-12-01T01:31:31.097Z,0.89
2022-12-01T01:33:59.831Z,0.87
2022-12-01T01:36:28.314Z,0.85
2022-12-01T01:38:56.897Z,0.82
2022-12-01T01:41:25.567Z,0.79
2022-12-01T01:43:55.909Z,0.77
2022-12-01T01:46:43.845Z,0.75
2022-12-01T01:49:16.626Z,0.73
2022-12-01T01:51:53.064Z,0.72
2022-12-01T01:54:27.004Z,0.71
2022-12-01T01:56:57.438Z,0.71
2022-12-01T01:59:31.974Z,0.70
2022-12-01T02:02:06.569Z,0.68
2022-12-01T02:04:36.161Z,0.66
2022-12-01T02:07:05.284Z,0.66
2022-12-01T02:09:34.074Z,0.64
2022-12-01T02:12:11.572Z,0.61
2022-12-01T02:14:40.831Z,0.58
2022-12-01T02:17:09.419Z,0.59
2022-12-01T02:19:57.040Z,0.58
2022-12-01T02:22:44.279Z,0.57
2022-12-01T02:25:19.891Z,0.57
2022-12-01T02:27:59.490Z,0.56
2022-12-01T02:30:46.725Z,0.55
2022-12-01T02:33:19.287Z,0.52
2022-12-01T02:35:50.739Z,0.49
2022-12-01T02:38:26.799Z,0.48
2022-12-01T02:41:00.297Z,0.46
2022-12-01T02:43:33.284Z,0.48
2022-12-01T02:46:13.133Z,0.47
2022-12-01T02:48:43.774Z,0.48
2022-12-01T02:51:15.046Z,0.49
2022-12-01T02:53:44.003Z,0.50
2022-12-01T02:56:13.487Z,0.49
2022-12-01T02:58:43.116Z,0.49
2022-12-01T03:01:50.700Z,0.48
2022-12-01T03:04:34.317Z,0.49
2022-12-01T03:07:03.762Z,0.51
2022-12-01T03:09:47.118Z,0.50
2022-12-01T03:12:36.149Z,0.52
2022-12-01T03:15:08.624Z,0.53
2022-12-01T03:17:47.551Z,0.52
2022-12-01T03:20:22.482Z,0.52
2022-12-01T03:22:54.137Z,0.52
2022-12-01T03:25:24.872Z,0.51
2022-12-01T03:28:20.185Z,0.51
2022-12-01T03:30:46.931Z,0.51
2022-12-01T03:33:19.500Z,0.51
2022-12-01T03:36:00.332Z,0.52
2022-12-01T03:38:30.402Z,0.53
2022-12-01T03:41:03.171Z,0.54
2022-12-01T03:43:33.334Z,0.54
2022-12-01T03:46:10.107Z,0.56
2022-12-01T03:48:39.478Z,0.56
2022-12-01T03:51:26.760Z,0.57
2022-12-01T03:54:14.730Z,0.58
2022-12-01T03:56:55.501Z,0.60
2022-12-01T03:59:25.516Z,0.61
2022-12-01T04:01:54.180Z,0.60
2022-12-01T04:04:22.683Z,0.61
2022-12-01T04:06:51.466Z,0.60
2022-12-01T04:09:19.857Z,0.59
2022-12-01T04:12:06.937Z,0.59
2022-12-01T04:14:35.554Z,0.57
2022-12-01T04:17:03.832Z,0.58
2022-12-01T04:19:32.621Z,0.56
2022-12-01T04:22:01.314Z,0.56
2022-12-01T04:24:29.464Z,0.54
2022-12-01T04:26:57.968Z,0.51
2022-12-01T04:29:26.750Z,0.49
2022-12-01T04:31:55.231Z,0.48
2022-12-01T04:34:23.712Z,0.47
2022-12-01T04:36:52.236Z,0.46
2022-12-01T04:39:20.674Z,0.45
2022-12-01T04:41:49.429Z,0.44
2022-12-01T04:44:17.844Z,0.43
2022-12-01T04:46:46.412Z,0.43
2022-12-01T04:49:15.008Z,0.43
2022-12-01T04:51:43.493Z,0.44
2022-12-01T04:54:11.869Z,0.45
2022-12-01T04:56:40.520Z,0.46
2022-12-01T04:59:09.347Z,0.45
2022-12-01T05:01:38.611Z,0.43
2022-12-01T05:04:07.507Z,0.41
2022-12-01T05:06:36.329Z,0.40
2022-12-01T05:09:04.705Z,0.40
2022-12-01T05:11:33.462Z,0.41
2022-12-01T05:14:02.075Z,0.40
2022-12-01T05:16:34.699Z,0.40
2022-12-01T05:19:23.408Z,0.40
2022-12-01T05:21:52.505Z,0.39
2022-12-01T05:24:21.625Z,0.37
2022-12-01T05:26:50.047Z,0.36
2022-12-01T05:29:18.768Z,0.32
2022-12-01T05:31:47.364Z,0.32
2022-12-01T05:34:15.731Z,0.29
2022-12-01T05:36:44.418Z,0.25
2022-12-01T05:39:13.048Z,0.21
2022-12-01T05:41:41.277Z,0.19
2022-12-01T05:44:09.861Z,0.16
2022-12-01T05:46:38.649Z,0.12
2022-12-01T05:49:07.030Z,0.09
2022-12-01T05:51:35.567Z,0.08
2022-12-01T05:54:04.402Z,0.08
2022-12-01T05:56:32.881Z,0.06
2022-12-01T05:59:01.362Z,0.05
2022-12-01T06:01:29.799Z,0.03
2022-12-01T06:03:58.170Z,0.02
2022-12-01T06:06:26.806Z,-0.00
2022-12-01T06:08:55.083Z,-0.03
2022-12-01T06:11:23.258Z,-0.05
2022-12-01T06:13:51.942Z,-0.08
2022-12-01T06:16:20.451Z,-0.08
2022-12-01T06:18:48.905Z,-0.08
2022-12-01T06:21:17.902Z,-0.09
2022-12-01T06:23:46.288Z,-0.09
2022-12-01T06:26:14.760Z,-0.08
2022-12-01T06:28:43.445Z,-0.08
2022-12-01T06:31:12.028Z,-0.08
2022-12-01T06:33:40.279Z,-0.09
2022-12-01T06:36:10.230Z,-0.11
2022-12-01T06:38:38.817Z,-0.10
2022-12-01T06:41:07.183Z,-0.11
2022-12-01T06:43:36.761Z,-0.10
2022-12-01T06:46:06.210Z,-0.11
2022-12-01T06:48:34.782Z,-0.12
2022-12-01T06:51:03.258Z,-0.12
2022-12-01T06:53:31.942Z,-0.11
2022-12-01T06:56:04.750Z,-0.12
2022-12-01T06:58:34.949Z,-0.12
2022-12-01T07:01:12.924Z,-0.12
2022-12-01T07:03:41.845Z,-0.12
2022-12-01T07:06:10.165Z,-0.12
2022-12-01T07:08:38.703Z,-0.13
2022-12-01T07:11:08.587Z,-0.13
2022-12-01T07:13:36.894Z,-0.14
2022-12-01T07:16:06.263Z,-0.13
2022-12-01T07:18:35.398Z,-0.13
2022-12-01T07:21:04.897Z,-0.12
2022-12-01T07:23:33.687Z,-0.10
2022-12-01T07:26:03.498Z,-0.08
2022-12-01T07:28:32.185Z,-0.07
2022-12-01T07:31:05.209Z,-0.05
2022-12-01T07:33:33.960Z,-0.03
2022-12-01T07:36:02.642Z,0.01
2022-12-01T07:38:31.945Z,0.03
2022-12-01T07:41:04.583Z,0.04
2022-12-01T07:43:33.414Z,0.06
2022-12-01T07:46:24.918Z,0.07
2022-12-01T07:48:54.547Z,0.09
2022-12-01T07:51:24.457Z,0.10
2022-12-01T07:53:53.972Z,0.12
2022-12-01T07:56:22.832Z,0.15
2022-12-01T07:58:51.745Z,0.18
2022-12-01T08:01:21.833Z,0.22
2022-12-01T08:03:51.063Z,0.25
2022-12-01T08:06:20.370Z,0.25
2022-12-01T08:08:49.225Z,0.25
2022-12-01T08:11:22.709Z,0.26
2022-12-01T08:13:51.880Z,0.28
2022-12-01T08:16:21.668Z,0.29
2022-12-01T08:18:50.523Z,0.28
2022-12-01T08:21:20.371Z,0.27
2022-12-01T08:23:49.255Z,0.28
2022-12-01T08:26:19.193Z,0.31
2022-12-01T08:28:47.828Z,0.33
2022-12-01T08:31:24.457Z,0.35
2022-12-01T08:33:53.116Z,0.36
2022-12-01T08:36:22.310Z,0.35
2022-12-01T08:38:53.664Z,0.33
2022-12-01T08:41:22.422Z,0.33
2022-12-01T08:43:59.212Z,0.32
2022-12-01T08:46:29.703Z,0.34
2022-12-01T08:48:59.156Z,0.36
2022-12-01T08:51:27.944Z,0.37
2022-12-01T08:53:57.932Z,0.40
2022-12-01T08:56:31.152Z,0.41
2022-12-01T08:58:59.942Z,0.41
2022-12-01T09:01:28.924Z,0.43
2022-12-01T09:04:09.047Z,0.43
2022-12-01T09:06:42.183Z,0.43
2022-12-01T09:09:12.198Z,0.42
2022-12-01T09:11:41.598Z,0.44
2022-12-01T09:14:10.387Z,0.43
2022-12-01T09:16:39.219Z,0.45
2022-12-01T09:19:07.660Z,0.50
2022-12-01T09:21:37.783Z,0.54
2022-12-01T09:24:07.561Z,0.56
2022-12-01T09:26:36.175Z,0.58
2022-12-01T09:29:06.502Z,0.59
2022-12-01T09:31:35.963Z,0.61
2022-12-01T09:34:05.407Z,0.64
2022-12-01T09:36:34.197Z,0.64
2022-12-01T09:39:03.085Z,0.65
2022-12-01T09:41:34.745Z,0.65
2022-12-01T09:44:16.124Z,0.65
2022-12-01T09:46:47.182Z,0.65
2022-12-01T09:49:26.889Z,0.66
2022-12-01T09:51:55.934Z,0.68
2022-12-01T09:54:24.182Z,0.67
2022-12-01T09:56:53.790Z,0.68
2022-12-01T09:59:24.636Z,0.70
2022-12-01T10:01:56.301Z,0.72
2022-12-01T10:04:34.081Z,0.71
2022-12-01T10:07:04.817Z,0.70
2022-12-01T10:09:40.464Z,0.68
2022-12-01T10:12:16.729Z,0.69
2022-12-01T10:14:46.644Z,0.72
2022-12-01T10:17:33.888Z,0.76
2022-12-01T10:20:05.316Z,0.81
2022-12-01T10:22:45.792Z,0.82
2022-12-01T10:25:24.667Z,0.83
2022-12-01T10:28:11.924Z,0.81
2022-12-01T10:30:50.545Z,0.81
2022-12-01T10:33:26.403Z,0.82
2022-12-01T10:35:55.045Z,0.83
2022-12-01T10:38:32.068Z,0.85
2022-12-01T10:41:01.877Z,0.87
2022-12-01T10:43:37.632Z,0.89
2022-12-01T10:46:15.176Z,0.91
2022-12-01T10:49:06.665Z,0.93
2022-12-01T10:51:46.697Z,0.93
2022-12-01T10:54:15.516Z,0.93
2022-12-01T10:56:45.843Z,0.92
2022-12-01T10:59:23.098Z,0.91
2022-12-01T11:01:53.019Z,0.91
2022-12-01T11:04:33.848Z,0.91
2022-12-01T11:07:03.114Z,0.92
2022-12-01T11:09:31.873Z,0.94
2022-12-01T11:12:01.569Z,0.95
2022-12-01T11:14:48.619Z,0.96
2022-12-01T11:17:23.088Z,0.95
2022-12-01T11:19:52.135Z,0.96
2022-12-01T11:22:29.467Z,0.95
2022-12-01T11:25:06.095Z,0.96
2022-12-01T11:27:37.474Z,0.96
2022-12-01T11:30:08.202Z,0.97
2022-12-01T11:32:38.791Z,0.95
2022-12-01T11:35:13.210Z,0.94
2022-12-01T11:38:27.801Z,0.96
2022-12-01T11:40:51.955Z,0.96
2022-12-01T11:43:25.800Z,0.99
2022-12-01T11:45:55.858Z,1.01
2022-12-01T11:48:28.767Z,1.02
2022-12-01T11:51:00.316Z,1.02
2022-12-01T11:53:30.140Z,1.00
2022-12-01T11:56:16.946Z,0.96
2022-12-01T11:58:47.282Z,0.96
2022-12-01T12:01:21.953Z,0.95
2022-12-01T12:04:09.591Z,0.95
2022-12-01T12:06:51.892Z,0.92
2022-12-01T12:09:44.739Z,0.90
2022-12-01T12:12:13.778Z,0.88
2022-12-01T12:14:53.008Z,0.86
2022-12-01T12:17:40.684Z,0.83
2022-12-01T12:20:22.115Z,0.81
2022-12-01T12:23:05.557Z,0.79
2022-12-01T12:25:49.195Z,0.76
2022-12-01T12:28:20.950Z,0.74
2022-12-01T12:30:55.442Z,0.73
2022-12-01T12:33:33.742Z,0.72
2022-12-01T12:36:02.318Z,0.70
2022-12-01T12:38:36.792Z,0.66
2022-12-01T12:41:15.001Z,0.64
2022-12-01T12:44:22.291Z,0.63
2022-12-01T12:46:56.686Z,0.61
2022-12-01T12:49:51.615Z,0.61
2022-12-01T12:52:24.293Z,0.62
2022-12-01T12:54:57.282Z,0.64
2022-12-01T12:57:25.701Z,0.66
2022-12-01T13:00:03.371Z,0.70
2022-12-01T13:02:52.198Z,0.73
2022-12-01T13:05:27.506Z,0.80
2022-12-01T13:08:02.075Z,0.84
2022-12-01T13:10:43.437Z,0.85
2022-12-01T13:13:30.685Z,0.87
2022-12-01T13:16:00.515Z,0.92
2022-12-01T13:18:35.099Z,0.94
2022-12-01T13:21:04.830Z,0.97
2022-12-01T13:23:34.134Z,1.02
2022-12-01T13:26:05.552Z,1.06
2022-12-01T13:28:46.559Z,1.12
2022-12-01T13:31:16.619Z,1.16
2022-12-01T13:34:02.003Z,1.17
2022-12-01T13:36:46.814Z,1.19
2022-12-01T13:39:36.329Z,1.19
2022-12-01T13:42:09.361Z,1.21
2022-12-01T13:44:40.872Z,1.26
2022-12-01T13:47:09.213Z,1.30
2022-12-01T13:49:42.918Z,1.32
2022-12-01T13:52:24.099Z,1.34
2022-12-01T13:55:19.011Z,1.34
2022-12-01T13:57:56.931Z,1.39
2022-12-01T14:00:33.252Z,1.43
2022-12-01T14:03:14.022Z,1.45
2022-12-01T14:05:45.184Z,1.48
2022-12-01T14:08:24.401Z,1.49
2022-12-01T14:11:13.121Z,1.50
2022-12-01T14:13:51.073Z,1.53
2022-12-01T14:16:19.641Z,1.54
2022-12-01T14:18:51.722Z,1.54
2022-12-01T14:21:39.972Z,1.56
2022-12-01T14:24:18.449Z,1.57
2022-12-01T14:26:49.524Z,1.61
2022-12-01T14:29:25.788Z,1.66
2022-12-01T14:31:54.371Z,1.64
2022-12-01T14:34:26.842Z,1.67
2022-12-01T14:36:58.506Z,1.67
2022-12-01T14:39:32.310Z,1.68
2022-12-01T14:42:02.875Z,1.68
2022-12-01T14:44:31.413Z,1.69
2022-12-01T14:47:05.915Z,1.71
2022-12-01T14:49:40.636Z,1.73
2022-12-01T14:52:28.414Z,1.71
2022-12-01T14:54:58.988Z,1.66
2022-12-01T14:57:46.670Z,1.69
2022-12-01T15:00:19.976Z,1.77
2022-12-01T15:02:56.211Z,1.82
2022-12-01T15:05:38.945Z,1.81
2022-12-01T15:08:40.265Z,1.82
2022-12-01T15:11:10.957Z,1.82
2022-12-01T15:13:45.755Z,1.78
2022-12-01T15:16:16.124Z,1.77
2022-12-01T15:18:45.074Z,1.76
2022-12-01T15:21:24.396Z,1.74
2022-12-01T15:23:57.500Z,1.72
2022-12-01T15:26:28.814Z,1.71
2022-12-01T15:29:17.424Z,1.75
2022-12-01T15:31:47.988Z,1.76
2022-12-01T15:34:31.040Z,1.77
2022-12-01T15:37:00.765Z,1.78
2022-12-01T15:39:32.781Z,1.79
2022-12-01T15:42:02.131Z,1.77
2022-12-01T15:44:33.008Z,1.73
2022-12-01T15:47:21.621Z,1.66
2022-12-01T15:49:50.415Z,1.58
2022-12-01T15:52:18.994Z,1.55
2022-12-01T15:55:27.397Z,1.55
2022-12-01T15:58:35.624Z,1.55
2022-12-01T16:05:34.341Z,1.51
2022-12-01T16:08:20.582Z,1.49
2022-12-01T16:11:07.916Z,1.48
2022-12-01T16:13:42.283Z,1.47
2022-12-01T16:16:29.705Z,1.46
2022-12-01T16:19:21.609Z,1.42
2022-12-01T16:21:51.654Z,1.38
2022-12-01T16:24:22.909Z,1.39
2022-12-01T16:26:59.780Z,1.41
2022-12-01T16:29:29.553Z,1.40
2022-12-01T16:32:23.425Z,1.38
2022-12-01T16:34:53.284Z,1.41
2022-12-01T16:37:24.531Z,1.47
2022-12-01T16:39:53.086Z,1.51
2022-12-01T16:42:22.003Z,1.56
2022-12-01T16:44:51.457Z,1.57
2022-12-01T16:47:21.671Z,1.56
2022-12-01T16:49:50.799Z,1.57
2022-12-01T16:52:43.808Z,1.56
2022-12-01T16:55:38.089Z,1.51
2022-12-01T16:58:06.763Z,1.45
2022-12-01T17:00:35.541Z,1.36
2022-12-01T17:03:05.272Z,1.33
2022-12-01T17:05:33.836Z,1.28
2022-12-01T17:08:02.200Z,1.24
2022-12-01T17:10:31.207Z,1.21
2022-12-01T17:13:00.208Z,1.16
2022-12-01T17:15:28.457Z,1.11
2022-12-01T17:17:57.061Z,1.09
2022-12-01T17:20:26.056Z,1.06
2022-12-01T17:22:54.474Z,1.04
2022-12-01T17:25:23.018Z,1.01
2022-12-01T17:27:52.933Z,0.93
2022-12-01T17:30:21.414Z,0.93
2022-12-01T17:32:49.991Z,0.90
2022-12-01T17:35:18.378Z,0.90
2022-12-01T17:37:46.755Z,0.89
2022-12-01T17:40:15.646Z,0.88
2022-12-01T17:42:48.753Z,0.88
2022-12-01T17:45:19.368Z,0.84
2022-12-01T17:47:48.053Z,0.81
2022-12-01T17:50:16.322Z,0.81
2022-12-01T17:52:45.232Z,0.82
2022-12-01T17:55:13.712Z,0.80
2022-12-01T17:57:42.286Z,0.79
2022-12-01T18:00:11.485Z,0.76
2022-12-01T18:02:39.817Z,0.75
2022-12-01T18:05:09.103Z,0.74
2022-12-01T18:07:37.670Z,0.72
2022-12-01T18:10:06.433Z,0.71
2022-12-01T18:12:35.120Z,0.69
2022-12-01T18:15:04.113Z,0.67
2022-12-01T18:17:32.389Z,0.65
2022-12-01T18:20:00.936Z,0.65
2022-12-01T18:22:29.454Z,0.67
2022-12-01T18:24:58.858Z,0.67
2022-12-01T18:27:27.448Z,0.67
2022-12-01T18:29:56.127Z,0.63
2022-12-01T18:32:24.403Z,0.61
2022-12-01T18:34:53.226Z,0.60
2022-12-01T18:37:21.902Z,0.58
2022-12-01T18:39:50.264Z,0.58
2022-12-01T18:42:18.943Z,0.58
2022-12-01T18:44:47.976Z,0.59
2022-12-01T18:47:16.832Z,0.58
2022-12-01T18:49:45.752Z,0.55
2022-12-01T18:52:14.302Z,0.53
2022-12-01T18:54:42.684Z,0.52
2022-12-01T18:57:12.291Z,0.49
2022-12-01T18:59:41.079Z,0.47
2022-12-01T19:02:10.123Z,0.43
2022-12-01T19:04:38.862Z,0.42
2022-12-01T19:07:08.366Z,0.42
2022-12-01T19:09:36.743Z,0.40
2022-12-01T19:12:06.340Z,0.39
2022-12-01T19:14:34.730Z,0.38
2022-12-01T19:17:03.317Z,0.37
2022-12-01T19:19:37.114Z,0.37
2022-12-01T19:22:06.218Z,0.38
2022-12-01T19:24:34.867Z,0.36
2022-12-01T19:27:03.590Z,0.33
2022-12-01T19:29:32.417Z,0.33
2022-12-01T19:32:02.293Z,0.32
2022-12-01T19:34:30.775Z,0.32
2022-12-01T19:36:59.546Z,0.31
2022-12-01T19:39:28.349Z,0.31
2022-12-01T19:41:57.471Z,0.29
2022-12-01T19:44:26.029Z,0.29
2022-12-01T19:46:55.331Z,0.29
2022-12-01T19:49:23.709Z,0.28
2022-12-01T19:51:52.291Z,0.29
2022-12-01T19:54:20.986Z,0.28
2022-12-01T19:56:49.363Z,0.28
2022-12-01T19:59:17.842Z,0.27
2022-12-01T20:01:46.677Z,0.28
2022-12-01T20:04:15.312Z,0.27
2022-12-01T20:06:43.869Z,0.26
2022-12-01T20:09:12.479Z,0.27
2022-12-01T20:11:40.921Z,0.27
2022-12-01T20:14:09.956Z,0.28
2022-12-01T20:16:38.814Z,0.30
2022-12-01T20:19:07.843Z,0.33
2022-12-01T20:21:39.569Z,0.35
2022-12-01T20:24:09.001Z,0.33
2022-12-01T20:26:38.857Z,0.31
2022-12-01T20:29:11.881Z,0.31
2022-12-01T20:31:41.028Z,0.32
2022-12-01T20:34:11.488Z,0.32
2022-12-01T20:36:41.109Z,0.32
2022-12-01T20:39:10.232Z,0.32
2022-12-01T20:41:39.636Z,0.31
2022-12-01T20:44:08.525Z,0.28
2022-12-01T20:46:37.761Z,0.25
2022-12-01T20:49:06.105Z,0.25
2022-12-01T20:51:35.200Z,0.24
2022-12-01T20:54:27.415Z,0.22
2022-12-01T20:56:53.871Z,0.22
2022-12-01T20:59:22.558Z,0.22
2022-12-01T21:01:50.945Z,0.22
2022-12-01T21:04:19.623Z,0.22
2022-12-01T21:06:50.222Z,0.22
2022-12-01T21:09:18.736Z,0.23
2022-12-01T21:12:07.707Z,0.23
2022-12-01T21:14:43.653Z,0.24
2022-12-01T21:17:20.941Z,0.23
2022-12-01T21:19:57.512Z,0.22
2022-12-01T21:22:26.267Z,0.21
2022-12-01T21:25:00.312Z,0.21
2022-12-01T21:27:28.743Z,0.21
2022-12-01T21:29:57.480Z,0.21
2022-12-01T21:32:29.612Z,0.21
2022-12-01T21:35:06.321Z,0.21
2022-12-01T21:37:35.357Z,0.19
2022-12-01T21:40:14.138Z,0.19
2022-12-01T21:42:42.825Z,0.20
2022-12-01T21:45:17.449Z,0.21
2022-12-01T21:47:46.139Z,0.19
2022-12-01T21:50:16.972Z,0.20
2022-12-01T21:52:46.479Z,0.21
2022-12-01T21:55:15.376Z,0.21
2022-12-01T21:57:45.079Z,0.22
2022-12-01T22:00:29.127Z,0.23
2022-12-01T22:03:06.461Z,0.23
2022-12-01T22:05:41.095Z,0.23
2022-12-01T22:08:12.591Z,0.23
2022-12-01T22:10:52.748Z,0.22
2022-12-01T22:13:36.794Z,0.23
2022-12-01T22:16:05.482Z,0.23
2022-12-01T22:18:37.953Z,0.25
2022-12-01T22:21:29.681Z,0.24
2022-12-01T22:24:04.940Z,0.24
2022-12-01T22:26:35.570Z,0.26
2022-12-01T22:29:08.435Z,0.27
2022-12-01T22:31:36.987Z,0.28
2022-12-01T22:34:11.211Z,0.27
2022-12-01T22:36:40.228Z,0.26
2022-12-01T22:39:23.001Z,0.25
2022-12-01T22:41:57.661Z,0.24
2022-12-01T22:44:28.201Z,0.26
2022-12-01T22:47:00.572Z,0.27
2022-12-01T22:49:29.272Z,0.27
2022-12-01T22:52:02.149Z,0.26
2022-12-01T22:54:43.529Z,0.25
2022-12-01T22:57:24.155Z,0.25
2022-12-01T22:59:53.059Z,0.25
2022-12-01T23:02:31.969Z,0.25
2022-12-01T23:05:02.133Z,0.27
2022-12-01T23:07:32.098Z,0.27
2022-12-01T23:10:13.134Z,0.27
2022-12-01T23:12:42.528Z,0.26
2022-12-01T23:15:30.630Z,0.28
2022-12-01T23:18:02.837Z,0.28
2022-12-01T23:20:34.668Z,0.26
2022-12-01T23:23:08.815Z,0.25
2022-12-01T23:25:37.197Z,0.25
2022-12-01T23:28:06.912Z,0.27
2022-12-01T23:30:36.211Z,0.28
2022-12-01T23:33:23.220Z,0.27
2022-12-01T23:35:55.079Z,0.26
2022-12-01T23:38:25.159Z,0.25
2022-12-01T23:40:56.750Z,0.26
2022-12-01T23:43:30.108Z,0.27
2022-12-01T23:46:04.849Z,0.27
2022-12-01T23:48:36.231Z,0.27
2022-12-01T23:51:05.422Z,0.27
2022-12-01T23:53:34.211Z,0.25
2022-12-01T23:56:05.866Z,0.24
2022-12-01T23:58:34.859Z,0.24
